| Pilot: | GLD1793 Tiago I. | Aircraft: | ATCCOM.ATC_NAME_BEECHCR | Distance: | 2818NM |
| From: | SDEN | To: | SBFL | Duration: | 0.42 |
| Validation: | Valid | Tipo: | Charter | Tail Number: | PT-GLD |
| ZFW: | 5220 | Block Fuel/Init FOB | 132flight_details.php/102 | Flight Fuel | 132 |
| Passengers: | 5 | Cargo: | 21 | Alternate: | SBCT |
| Departure Time: | 2012 | Cruise Speed: | 193 | Flight Level: | FL300 |
| Flight Type: | VFR | Aircraft Type: | BE58 | Weight Unit: | Kg |
| Date: | 05/05/2026 | Comments: | GOLD ACARS | Network: | VATSIM |
| Crash: | No | Validator Comments: | Rating | 94 |
| ROUTE | SBFL |
| REMARKS | OPR/GOLD VIRTUAL AIRLINES PER/C RMK/FROM SDEN RMK/PIC GLD1793 |
| Crash | OK | Beacon Lights off with engine on | OK | Speed above 250KIAS below 10.000ft | OK |
| Landing Lights OFF below 10.000ft | Fault | Landing Lights ON above 10.000ft | OK | Stall | OK |
| Overspeed | OK | Pause | OK | Refuel | OK |
| Slew | OK | Taxi Lights OFF during taxi | OK | Land Lights OFF during take off | OK |
| Landing Lights OFF during landing | OK | Landed in not planned airfield | OK | Taxi speed above 25 kt | OK |
| Incorrect QNH during take off | OK | Incorrect QNH during landing | OK |
| Wind: | 319º/6 kt | Heading: | 303 |
| VS: | -157 ft/min | IAS: | 110 kt |
| Gforce: | 1.1856 G | Bank: | 0.75 |
| Pitch | 2.82 | Flaps | 50 |
| Nav Lights | ON | Landing Lights | ON |
| Beacon Lights | ON | Strobe Lights | ON |
| DATE | EVENT | IAS | ALTITUDE |
|---|---|---|---|
| 2026-05-05 20:12:53 | GOLD ACARS VERSION 3.3.7.1 | 0 | 0 |
| 2026-05-05 20:12:53 | BOARDING | 0 | -83 |
| 2026-05-05 20:15:16 | BCN LIGHTS ON | 0 | -83 |
| 2026-05-05 20:15:20 | STB LIGHTS ON | 0 | -83 |
| 2026-05-05 20:16:22 | STARTING ENGINE 1 | 0 | -83 |
| 2026-05-05 20:17:18 | STARTING ENGINE 2 | 0 | -83 |
| 2026-05-05 20:18:15 | TAXI TO THE RWY | 0 | -82 |
| 2026-05-05 20:18:41 | FLAP 50% | 1 | -83 |
| 2026-05-05 20:19:51 | FLAP 100% | 9 | 26 |
| 2026-05-05 20:19:52 | FLAP 50% | 13 | 26 |
| 2026-05-05 20:20:08 | GEAR UP | 99 | 44 |
| 2026-05-05 20:20:10 | CLIMBING | 103 | 54 |
| 2026-05-05 20:20:10 | LIGHTS OFF BELOW 10000 ft | 103 | 54 |
| 2026-05-05 20:20:10 | TAKE OFF TRANSPONDER NOT IN C MODE | 104 | 59 |
| 2026-05-05 20:20:17 | AP ENGAGED | 107 | 209 |
| 2026-05-05 20:20:24 | CRUISE | 119 | 353 |
| 2026-05-05 20:20:43 | CLIMBING | 147 | 438 |
| 2026-05-05 20:20:43 | FLAP 0% | 147 | 438 |
| 2026-05-05 20:22:49 | CRUISE | 166 | 2487 |
| 2026-05-05 20:24:57 | LND LIGHTS ON | 188 | 2507 |
| 2026-05-05 20:24:59 | TAXI LIGHTS ON | 188 | 2506 |
| 2026-05-05 20:33:05 | AP DISENGAGED | 184 | 2494 |
| 2026-05-05 20:33:30 | LANDING | 216 | 1528 |
| 2026-05-05 20:33:50 | CLIMBING | 227 | 553 |
| 2026-05-05 20:34:05 | CRUISE | 173 | 1070 |
| 2026-05-05 20:34:07 | LANDING | 171 | 1068 |
| 2026-05-05 20:34:22 | CLIMBING | 161 | 866 |
| 2026-05-05 20:34:25 | CRUISE | 155 | 885 |
| 2026-05-05 20:34:33 | LANDING | 150 | 897 |
| 2026-05-05 20:34:33 | GEAR DOWN | 150 | 897 |
| 2026-05-05 20:34:34 | FLAP 50% | 150 | 893 |
| 2026-05-05 20:35:38 | LANDED AIRPORT [SBFL] | 111 | 64 |
| 2026-05-05 20:35:39 | LANDED - VS: -157 ft/min | 110 | 60 |
| 2026-05-05 20:35:56 | TAXI TO THE GATE | 28 | 54 |
| 2026-05-05 20:37:42 | AT THE GATE | 0 | 21 |
| 2026-05-05 20:37:55 | STOPPING ENGINE 1 | 0 | 21 |
| 2026-05-05 20:37:56 | STOPPING ENGINE 2 | 0 | 21 |
| 2026-05-05 20:38:11 | LND LIGHTS OFF | 0 | 21 |
| 2026-05-05 20:38:12 | TAXI LIGHTS OFF | 0 | 21 |
| 2026-05-05 20:38:15 | BCN LIGHTS OFF | 0 | 21 |
| 2026-05-05 20:38:15 | FLIGHT FINISHED | 0 | 21 |
| 2026-05-05 20:12:53 | GOLD ACARS VERSION 3.3.7.1 | 0 | 0 |
| 2026-05-05 20:12:53 | BOARDING | 0 | -83 |
| 2026-05-05 20:15:16 | BCN LIGHTS ON | 0 | -83 |
| 2026-05-05 20:15:20 | STB LIGHTS ON | 0 | -83 |
| 2026-05-05 20:16:22 | STARTING ENGINE 1 | 0 | -83 |
| 2026-05-05 20:17:18 | STARTING ENGINE 2 | 0 | -83 |
| 2026-05-05 20:18:15 | TAXI TO THE RWY | 0 | -82 |
| 2026-05-05 20:18:41 | FLAP 50% | 1 | -83 |
| 2026-05-05 20:19:51 | FLAP 100% | 9 | 26 |
| 2026-05-05 20:19:52 | FLAP 50% | 13 | 26 |
| 2026-05-05 20:20:08 | GEAR UP | 99 | 44 |
| 2026-05-05 20:20:10 | CLIMBING | 103 | 54 |
| 2026-05-05 20:20:10 | LIGHTS OFF BELOW 10000 ft | 103 | 54 |
| 2026-05-05 20:20:10 | TAKE OFF TRANSPONDER NOT IN C MODE | 104 | 59 |
| 2026-05-05 20:20:17 | AP ENGAGED | 107 | 209 |
| 2026-05-05 20:20:24 | CRUISE | 119 | 353 |
| 2026-05-05 20:20:43 | CLIMBING | 147 | 438 |
| 2026-05-05 20:20:43 | FLAP 0% | 147 | 438 |
| 2026-05-05 20:22:49 | CRUISE | 166 | 2487 |
| 2026-05-05 20:24:57 | LND LIGHTS ON | 188 | 2507 |
| 2026-05-05 20:24:59 | TAXI LIGHTS ON | 188 | 2506 |
| 2026-05-05 20:33:05 | AP DISENGAGED | 184 | 2494 |
| 2026-05-05 20:33:30 | LANDING | 216 | 1528 |
| 2026-05-05 20:33:50 | CLIMBING | 227 | 553 |
| 2026-05-05 20:34:05 | CRUISE | 173 | 1070 |
| 2026-05-05 20:34:07 | LANDING | 171 | 1068 |
| 2026-05-05 20:34:22 | CLIMBING | 161 | 866 |
| 2026-05-05 20:34:25 | CRUISE | 155 | 885 |
| 2026-05-05 20:34:33 | LANDING | 150 | 897 |
| 2026-05-05 20:34:33 | GEAR DOWN | 150 | 897 |
| 2026-05-05 20:34:34 | FLAP 50% | 150 | 893 |
| 2026-05-05 20:35:38 | LANDED AIRPORT [SBFL] | 111 | 64 |
| 2026-05-05 20:35:39 | LANDED - VS: -157 ft/min | 110 | 60 |
| 2026-05-05 20:35:56 | TAXI TO THE GATE | 28 | 54 |
| 2026-05-05 20:37:42 | AT THE GATE | 0 | 21 |
| 2026-05-05 20:37:55 | STOPPING ENGINE 1 | 0 | 21 |
| 2026-05-05 20:37:56 | STOPPING ENGINE 2 | 0 | 21 |
| 2026-05-05 20:38:11 | LND LIGHTS OFF | 0 | 21 |
| 2026-05-05 20:38:12 | TAXI LIGHTS OFF | 0 | 21 |
| 2026-05-05 20:38:15 | BCN LIGHTS OFF | 0 | 21 |
| 2026-05-05 20:38:15 | FLIGHT FINISHED | 0 | 21 |
| DATE | IAS | GS | ALTITUDE | FUEL USED | OAT | Flight Phase |
|---|---|---|---|---|---|---|
| 2026-05-05 20:14:26 | 0 | 0 | -83 | 0 | 27 | BOARDING |
| 2026-05-05 20:15:27 | 0 | 0 | -83 | 0 | 27 | BOARDING |
| 2026-05-05 20:16:28 | 0 | 0 | -83 | 0 | 27 | BOARDING |
| 2026-05-05 20:17:29 | 0 | 0 | -83 | 0 | 27 | BOARDING |
| 2026-05-05 20:18:30 | 0 | 8 | -84 | 0 | 26 | BOARDING |
| 2026-05-05 20:19:31 | 0 | 0 | -83 | 0 | 26 | TAXI TO THE RWY |
| 2026-05-05 20:20:32 | 136 | 136 | 377 | 2 | 26 | TAXI TO THE RWY |
| 2026-05-05 20:21:33 | 160 | 170 | 1242 | 4 | 23 | CRUISE |
| 2026-05-05 20:22:33 | 164 | 181 | 2248 | 7 | 23 | CLIMBING |
| 2026-05-05 20:23:34 | 183 | 195 | 2503 | 9 | 23 | CLIMBING |
| 2026-05-05 20:24:35 | 190 | 202 | 2506 | 11 | 23 | CRUISE |
| 2026-05-05 20:25:36 | 188 | 199 | 2509 | 13 | 23 | CRUISE |
| 2026-05-05 20:26:37 | 188 | 199 | 2508 | 15 | 23 | CRUISE |
| 2026-05-05 20:27:38 | 187 | 198 | 2503 | 17 | 23 | CRUISE |
| 2026-05-05 20:28:39 | 187 | 200 | 2507 | 20 | 22 | CRUISE |
| 2026-05-05 20:29:40 | 189 | 202 | 2504 | 22 | 22 | CRUISE |
| 2026-05-05 20:30:41 | 188 | 201 | 2502 | 24 | 22 | CRUISE |
| 2026-05-05 20:31:41 | 191 | 204 | 2503 | 26 | 22 | CRUISE |
| 2026-05-05 20:32:42 | 189 | 202 | 2501 | 28 | 23 | CRUISE |
| 2026-05-05 20:33:43 | 238 | 234 | 723 | 29 | 25 | CRUISE |
| 2026-05-05 20:34:44 | 139 | 150 | 898 | 30 | 25 | LANDING |
| 2026-05-05 20:35:45 | 89 | 87 | 55 | 30 | 24 | LANDING |
| 2026-05-05 20:36:46 | 22 | 25 | 22 | 30 | 24 | LANDED - VS: -157 ft/min |
| 2026-05-05 20:37:46 | 0 | 0 | 21 | 30 | 24 | TAXI TO THE GATE |
| 2026-05-05 20:53:48 | 0 | 0 | 21 | 0 | 24 | AT THE GATE |